ESNU/UME METAR and TAF weather

Enter ICAO airport designator
Station Type Date Time Source
ESNU METAR 2022/06/29 00:20 UTC NOAA

ESNU 290020Z 00000KT CAVOK 17/16 Q1018


Station Type Date Time Source
ESNU Decoded METAR 2022/06/29 00:20 UTC NOAA

Umea Flygplats, Sweden (ESNU) 63-48N 020-17E 14M
Jun 28, 2022 - 08:20 PM EDT / 2022.06.29 0020 UTC
Wind: Calm:0
Visibility: greater than 7 mile(s):0
Temperature: 62 F (17 C)
Dew Point: 60 F (16 C)
Relative Humidity: 93%
Pressure (altimeter): 30.06 in. Hg (1018 hPa)
ob: ESNU 290020Z 00000KT CAVOK 17/16 Q1018
cycle: 0

Station Type Date Time Source
ESNU TAF 2019/10/24 00:55 UTC NOAA

TAF
AMD ESNU 242348Z 2500/2524 16003KT 0200 FG VV002 PROB40 2500/2509 8000 -RA BKN005

Example: see airport list